Stations météo

réclame
Mon MeteoGroup
Gent/Industry Zo, Pays-Bas (6431): Température de l'air & dewpoint: 14.07.2018 22:00:00 - 20.07.2018 22:00:00 (CEST)Gent/Industry Zo, Pays-Bas (6431): Vitesse du vent & gusts: 14.07.2018 22:00:00 - 20.07.2018 22:00:00 (CEST)Gent/Industry Zo, Pays-Bas (6431): Direction du vent: 14.07.2018 22:00:00 - 20.07.2018 22:00:00 (CEST)Gent/Industry Zo, Pays-Bas (6431): reduced air pressure: 14.07.2018 22:00:00 - 20.07.2018 22:00:00 (CEST)Gent/Industry Zo, Pays-Bas (6431): Ensoleillement: 14.07.2018 22:00:00 - 20.07.2018 22:00:00 (CEST)Gent/Industry Zo, Pays-Bas (6431): Quantités de précipitations: 14.07.2018 22:00:00 - 20.07.2018 22:00:00 (CEST)
Date & Time tt [°C] td [°C] ff [km/h] ff [knt] fx [km/h] fx [knt] dd ppp [hPa] sd [min] rr [mm]
20.07.2018 22:00:00 20,6 12,6 12 6 22 12 N 1012,7 - 0,0
20.07.2018 21:00:00 20,8 13,0 8 5 16 8 N 1012,9 - 0,0
20.07.2018 20:00:00 21,8 12,5 7 4 13 7 NNW 1013,5 - 0,0
20.07.2018 19:00:00 22,7 11,9 9 5 23 13 N 1013,7 - 0,0
20.07.2018 18:00:00 23,5 13,9 17 9 22 12 NW 1013,9 - 0,0
20.07.2018 17:00:00 24,2 12,4 12 7 16 9 NW 1014,4 - 0,0
20.07.2018 16:00:00 24,2 12,6 9 5 14 7 NNW 1014,8 - 0,0
20.07.2018 15:00:00 24,5 12,7 7 4 16 9 NW 1015,1 - 0,0
20.07.2018 14:00:00 24,8 11,6 7 4 17 9 N 1015,3 - 0,0
20.07.2018 13:00:00 24,7 9,7 8 5 16 9 N 1015,4 - 0,0
20.07.2018 12:00:00 23,9 10,5 8 4 17 9 N 1015,5 - 0,0
20.07.2018 11:00:00 22,8 15,0 7 4 - - NNE 1015,6 - -
20.07.2018 10:00:00 21,0 16,4 7 4 11 6 N 1015,8 - -
20.07.2018 09:00:00 18,7 16,4 5 3 9 5 N 1016,0 - 0,0
20.07.2018 08:00:00 16,9 15,8 4 2 9 5 NE 1015,8 - 0,0
20.07.2018 07:00:00 15,5 14,8 5 3 9 5 NE 1015,9 - 0,0
20.07.2018 06:00:00 15,4 14,6 4 2 8 4 NNE 1016,1 0 0,0
20.07.2018 05:00:00 15,7 14,5 5 3 9 5 NE 1016,4 0 0,0
20.07.2018 04:00:00 15,8 14,2 4 2 8 4 NNE 1016,7 0 0,0
20.07.2018 03:00:00 16,6 13,7 4 2 6 4 N 1017,2 0 0,0
20.07.2018 02:00:00 17,1 13,5 4 2 9 5 N 1017,4 0 0,0
20.07.2018 01:00:00 17,3 13,4 5 3 8 5 N 1017,6 0 0,0
20.07.2018 00:00:00 18,0 13,4 4 2 8 5 NNE 1017,8 0 0,0
19.07.2018 23:00:00 19,2 13,4 5 3 9 5 NNE 1018,0 - 0,0
19.07.2018 22:00:00 20,5 12,2 6 3 15 8 NNE 1018,1 - 0,0
19.07.2018 21:00:00 22,3 11,2 11 6 22 12 N 1018,3 - 0,0
19.07.2018 20:00:00 24,1 10,4 11 6 19 10 N 1018,3 - 0,0
19.07.2018 19:00:00 25,0 11,1 10 5 17 9 N 1018,2 - 0,0
19.07.2018 18:00:00 24,9 11,5 9 5 19 11 N 1018,6 - 0,0
19.07.2018 17:00:00 25,0 11,9 11 6 - - N 1018,9 - -
19.07.2018 16:00:00 25,0 11,8 11 6 21 11 NNW 1019,2 - 0,0
19.07.2018 15:00:00 24,8 13,5 11 6 22 12 NNW 1019,3 - -
19.07.2018 14:00:00 24,5 13,7 11 6 19 10 NW 1019,3 - 0,0
19.07.2018 13:00:00 24,1 13,3 5 3 13 7 N 1019,6 - 0,0
19.07.2018 12:00:00 22,5 13,5 8 4 17 9 NW 1019,7 - 0,0
19.07.2018 11:00:00 22,4 14,3 10 5 21 12 NNW 1019,7 - 0,0
19.07.2018 10:00:00 21,0 16,5 6 4 11 6 N 1019,8 - 0,0
19.07.2018 09:00:00 18,4 17,7 5 3 8 5 NNW 1019,7 - 0,0
19.07.2018 08:00:00 16,7 16,3 4 2 6 3 NNW 1019,7 - 0,0
19.07.2018 07:00:00 15,0 14,6 4 2 7 4 N 1019,3 - 0,0
19.07.2018 06:00:00 14,7 14,2 4 2 6 4 NNW 1019,3 0 0,0
19.07.2018 05:00:00 15,0 14,2 4 2 6 3 NNW 1019,5 0 0,0
19.07.2018 04:00:00 15,1 14,1 4 2 7 4 N 1019,6 0 0,0
19.07.2018 03:00:00 15,6 14,1 4 2 6 3 N 1019,7 0 0,0
19.07.2018 02:00:00 16,3 14,1 4 2 6 3 NNW 1019,8 0 0,0
19.07.2018 01:00:00 16,9 13,8 4 2 6 3 N 1019,7 0 0,0
19.07.2018 00:00:00 18,2 13,5 4 2 8 4 N 1019,6 0 0,0
18.07.2018 23:00:00 19,0 13,6 4 2 10 5 NE 1019,4 - 0,0
18.07.2018 22:00:00 20,4 13,3 5 3 14 8 NE 1019,5 - 0,0
18.07.2018 21:00:00 22,2 12,9 9 5 18 10 N 1019,4 - 0,0
18.07.2018 20:00:00 23,2 13,4 11 6 20 11 NNW 1019,3 - 0,0
18.07.2018 19:00:00 23,0 14,9 9 5 17 9 N 1019,3 - 0,0
18.07.2018 18:00:00 23,9 14,0 12 6 24 13 NNW 1019,3 - 0,0
18.07.2018 17:00:00 23,9 14,2 9 5 22 12 NNW 1019,3 - 0,0
18.07.2018 16:00:00 23,9 14,0 9 5 24 13 WNW 1019,3 - 0,0
18.07.2018 15:00:00 24,6 14,4 16 9 24 13 WNW 1019,4 - 0,0
18.07.2018 14:00:00 23,1 14,3 11 6 17 9 NNW 1019,5 - 0,0
18.07.2018 13:00:00 23,6 14,8 10 5 18 10 W 1019,7 - 0,0
18.07.2018 12:00:00 21,7 14,8 10 5 19 10 W 1019,7 - 0,0
18.07.2018 11:00:00 20,5 14,8 11 6 20 11 WSW 1019,8 - 0,0
18.07.2018 10:00:00 19,2 15,2 9 5 17 9 SW 1019,7 - 0,0
18.07.2018 09:00:00 17,6 14,4 10 5 19 10 WSW 1019,6 - 0,0
18.07.2018 08:00:00 16,6 13,4 11 6 14 8 WSW 1019,2 - 0,0
18.07.2018 07:00:00 15,6 12,7 7 4 13 7 SW 1019,0 - 0,0
18.07.2018 06:00:00 15,3 12,5 6 3 11 6 SW 1018,7 0 0,0
18.07.2018 05:00:00 15,4 11,8 5 3 12 6 SW 1018,8 0 0,0
18.07.2018 04:00:00 16,2 11,9 7 4 12 7 WSW 1018,8 0 0,0
18.07.2018 03:00:00 16,6 11,7 7 4 11 6 WSW 1019,0 0 0,0
18.07.2018 02:00:00 17,1 11,9 7 4 10 5 SW 1018,9 0 0,0
18.07.2018 01:00:00 17,1 12,2 6 3 9 5 WSW 1018,9 0 0,0
18.07.2018 00:00:00 16,9 12,4 0 0 6 4 N 1018,9 0 0,0
17.07.2018 23:00:00 18,8 12,5 6 3 12 6 NW 1018,6 - 0,0
17.07.2018 22:00:00 20,5 13,1 11 6 23 12 NW 1018,2 - 0,0
17.07.2018 21:00:00 22,2 13,2 14 7 20 11 WNW 1017,9 - 0,0
17.07.2018 20:00:00 23,0 11,5 11 6 27 15 WNW 1017,5 - 0,0
17.07.2018 19:00:00 23,6 11,8 14 8 31 17 NW 1017,5 - 0,0
17.07.2018 18:00:00 23,7 11,6 19 10 31 17 NW 1017,5 - 0,0
17.07.2018 17:00:00 23,4 11,5 22 12 37 20 WNW 1017,5 - 0,0
17.07.2018 16:00:00 23,3 12,6 25 13 36 20 W 1017,3 - 0,0
17.07.2018 15:00:00 24,0 14,2 22 12 37 20 WNW 1017,0 - 0,0
17.07.2018 14:00:00 24,6 13,3 18 10 37 20 WSW 1016,7 - 0,0
17.07.2018 13:00:00 24,4 14,0 17 9 34 18 WSW 1016,6 - 0,0
17.07.2018 12:00:00 23,8 14,6 16 8 27 15 WSW 1016,3 - 0,0
17.07.2018 11:00:00 22,0 16,8 14 8 22 12 WSW 1016,0 - 0,0
17.07.2018 10:00:00 20,0 17,1 16 9 25 14 WSW 1015,9 - 0,0
17.07.2018 09:00:00 18,3 16,9 15 8 26 14 WSW 1015,3 - 0,0
17.07.2018 08:00:00 16,9 14,8 11 6 20 11 SW 1015,0 - 0,0
17.07.2018 07:00:00 16,6 13,6 11 6 18 10 WSW 1014,4 - 0,0
17.07.2018 06:00:00 17,1 12,9 11 6 18 10 SW 1014,1 - 0,0
17.07.2018 05:00:00 18,1 13,1 11 6 19 10 SW 1014,0 0 0,0
17.07.2018 04:00:00 18,7 13,3 8 4 13 7 WSW 1014,2 0 0,0
17.07.2018 03:00:00 19,3 14,2 8 5 12 7 WSW 1014,2 0 0,0
17.07.2018 02:00:00 19,3 14,6 6 4 11 6 WSW 1014,4 0 0,0
17.07.2018 01:00:00 19,3 15,2 6 3 11 6 WNW 1014,4 0 0,0
17.07.2018 00:00:00 20,0 16,0 9 5 14 8 W 1014,2 0 0,0
16.07.2018 23:00:00 20,9 15,7 6 4 16 9 ENE 1013,6 - 0,0
16.07.2018 22:00:00 22,0 15,5 5 3 23 13 E 1013,5 - 0,0
16.07.2018 21:00:00 21,9 15,5 13 7 27 14 E 1013,3 - 0,0
16.07.2018 20:00:00 22,0 16,7 14 8 - - E 1013,2 - -
16.07.2018 19:00:00 21,1 17,9 8 4 40 22 E 1013,3 - 3,3
16.07.2018 18:00:00 24,0 17,5 15 8 30 16 SSW 1013,3 - 2,5
16.07.2018 17:00:00 29,5 11,6 5 3 18 10 NE 1012,4 - 0,0
16.07.2018 16:00:00 32,2 12,3 6 4 15 8 SSE 1012,8 - 0,0
16.07.2018 15:00:00 30,4 12,1 9 5 16 9 WSW 1013,2 - 0,0
16.07.2018 14:00:00 29,2 11,6 7 4 18 10 ENE 1013,7 - 0,0
16.07.2018 13:00:00 29,3 11,5 6 3 16 9 ESE 1014,0 - 0,0
16.07.2018 12:00:00 29,4 11,5 8 4 17 9 E 1014,1 - 0,0
16.07.2018 11:00:00 28,2 13,0 7 4 13 7 ESE 1014,2 - 0,0
16.07.2018 10:00:00 25,8 14,3 4 2 8 4 NNE 1014,2 - 0,0
16.07.2018 09:00:00 22,8 13,8 5 3 12 7 E 1014,2 - 0,0
16.07.2018 08:00:00 21,2 12,6 7 4 12 7 E 1014,2 - 0,0
16.07.2018 07:00:00 18,0 14,3 0 0 8 4 N 1014,1 - 0,0
16.07.2018 06:00:00 17,5 14,4 4 2 8 4 NNE 1014,0 - 0,0
16.07.2018 05:00:00 18,2 14,5 5 3 10 5 E 1013,9 0 0,0
16.07.2018 04:00:00 18,6 15,3 6 4 9 5 ENE 1014,3 0 0,0
16.07.2018 03:00:00 19,8 15,3 6 3 12 7 NE 1014,5 0 0,0
16.07.2018 02:00:00 20,7 15,5 6 3 12 7 ENE 1014,9 0 0,0
16.07.2018 01:00:00 21,3 15,6 6 3 10 6 ENE 1015,3 0 0,0
16.07.2018 00:00:00 21,8 15,2 5 3 9 5 NE 1015,4 0 0,0
15.07.2018 23:00:00 22,5 14,4 5 3 10 5 NNE 1015,5 - 0,0
15.07.2018 22:00:00 24,3 14,3 6 3 14 7 NNE 1015,5 - 0,0
15.07.2018 21:00:00 26,2 13,4 7 4 22 12 N 1015,4 - 0,0
15.07.2018 20:00:00 27,9 12,0 11 6 19 10 N 1015,2 - 0,0
15.07.2018 19:00:00 28,3 10,5 12 6 23 12 N 1015,2 - 0,0
15.07.2018 18:00:00 28,9 12,3 13 7 29 16 NNW 1015,5 - 0,0
15.07.2018 17:00:00 29,1 11,8 13 7 24 13 NNW 1015,9 - 0,0
15.07.2018 16:00:00 29,2 11,9 9 5 21 11 NNW 1016,1 - 0,0
15.07.2018 15:00:00 28,6 10,2 6 3 23 12 NNE 1016,5 - 0,0
15.07.2018 14:00:00 28,3 11,2 7 4 19 10 NNE 1017,0 - 0,0
15.07.2018 13:00:00 27,5 12,1 10 5 20 11 N 1017,5 - 0,0
15.07.2018 12:00:00 27,0 12,9 7 4 18 10 ENE 1017,8 - 0,0
15.07.2018 11:00:00 26,3 13,7 7 4 14 8 ESE 1018,1 - 0,0
15.07.2018 10:00:00 23,2 14,9 6 4 13 7 ESE 1018,2 - 0,0
15.07.2018 09:00:00 19,7 13,9 8 5 15 8 E 1017,9 - 0,0
15.07.2018 08:00:00 18,1 13,8 7 4 15 8 E 1017,8 - 0,0
15.07.2018 07:00:00 17,1 14,2 8 4 17 9 ENE 1017,5 - 0,0
15.07.2018 06:00:00 16,5 14,2 9 5 16 8 ENE 1017,7 - 0,0
15.07.2018 05:00:00 15,9 13,8 6 3 10 6 ENE 1018,1 0 0,0
15.07.2018 04:00:00 16,6 13,8 5 3 12 6 NE 1018,3 0 0,0
15.07.2018 03:00:00 17,3 13,7 7 4 15 8 ENE 1018,6 0 0,0
15.07.2018 02:00:00 18,4 14,1 7 4 16 9 ENE 1018,8 0 0,0
15.07.2018 01:00:00 18,5 15,7 7 4 13 7 ENE 1019,0 0 0,0
15.07.2018 00:00:00 19,2 16,2 5 3 9 5 NNE 1019,1 0 0,0
14.07.2018 23:00:00 20,4 16,3 4 2 10 6 N 1019,2 - 0,0
14.07.2018 22:00:00 22,0 16,3 6 4 14 7 N 1018,9 - 0,0

tt = Température de l'air
td = dewpoint
ff = Vitesse du vent
fx = gusts
dd = Direction du vent
ppp = reduced air pressure
sd = Ensoleillement
rr = Quantités de précipitations

stations d'obs. à proximité